首页
METAR-TAF:

METAR-TAF

机场 :

約拉, 尼日利亚

纬度: 09-14N, 经度: 012-28E, 海拔: 191米

当前天气观测

该预报发布于6小时和38分钟前的16:00 UTC
风速5节,风向南转南东
温度 30°C
湿度 62%
气压 1010 hPa
能见度10公里或以上
散云层高于1200英尺
少量云层高于2100英尺, 积雨云.

METAR: DNYO 141600Z 15005KT 9999 SCT012 FEW021CB 30/22 Q1010

时间: 23:38 (22:38 UTC)

预报

该预报发布于5小时和38分钟前的17:00 UTC
预报有效从14日的 18点(UTC)到 15日的 24点(UTC)
风速8节,风向西
能见度10公里或以上
散云层高于1300英尺
少量云层高于1900英尺, 积雨云.
雷暴
短暂存在
从 14日的 21点(UTC)到 14日的 23点(UTC)
少量云层高于1100英尺

TAF: DNYO 141700Z 1418/1524 27008KT 9999 TS SCT013 FEW019CB TEMPO 1421/1423 NSW FEW011

超过4000个机场的气象观测和天气预报(METAR&TAF报告)。

可查询的气象台以黄色和红色小点在地图上表示。

将鼠标移到小点上方,可查看气象台名称。

然后点击查看天气观测和预报。

如需切换地图:点击带黑十字的绿色按钮放大地图;点击带横线的绿色按钮缩小地图;或者点击绿色箭头查看邻近地区的地图。


METAR-TAF: